Pagina principale
METAR-TAF:

METAR-TAF

Aeroporti :

North Central State Airport

Pawtucket, Rhode Island, Stati Uniti

latitudine: 41-55N, longitudine: 071-30W, altezza: 134 m

Osservazione

Il bollettino è stato emesso 27 minuti fa, alle 07:56 UTC
Vento 7 kt da ovest
Temperature 22°C
Umidità 83%
Pressione 1015 hPa
Visibilità: 16.1 km
Cielo sereno

METAR: KSFZ 160756Z AUTO 27007KT 10SM CLR 22/19 A2996 RMK AO2 SLP088 T02220194

Ora: 04:23 (08:23 UTC)


TAF: mancante

Osservazioni e previsioni meteorologiche di più di 4000 aeroporti (messaggi METAR e TAF).

Le stazioni disponibili sono rappresentate dai dischi gialli e rossi sulla carta.

Puntare il mouse per vedere il nome della stazione.

Clicca sopra per visualizzare le osservazioni e previsioni meteorologiche.

Per cambiare la mappa : fare clic sui pulsanti verdi con una croce nera per ingrandire, il pulsante verde con un trattino per diminuire, o sulla freccia verde per le mappe adiacenti.


METAR-TAF: